createdAt,value
2022-11-05T00:15:57.250Z,22.90
2022-11-05T00:46:00.028Z,20.17
2022-11-05T01:16:03.518Z,23.23
2022-11-05T01:46:06.774Z,19.93
2022-11-05T02:16:10.163Z,16.63
2022-11-05T02:46:13.022Z,15.53
2022-11-05T03:16:16.109Z,11.93
2022-11-05T03:46:19.220Z,9.20
2022-11-05T04:16:22.441Z,6.67
2022-11-05T04:46:25.187Z,5.90
2022-11-05T05:16:29.044Z,7.93
2022-11-05T05:46:32.253Z,6.47
2022-11-05T06:16:35.729Z,5.90
2022-11-05T06:46:38.697Z,5.93
2022-11-05T07:16:43.027Z,6.77
2022-11-05T07:46:45.920Z,17.50
2022-11-05T08:16:49.938Z,11.80
2022-11-05T08:46:52.812Z,7.63
2022-11-05T09:16:56.257Z,13.10
2022-11-05T09:46:59.033Z,11.17
2022-11-05T10:17:03.128Z,8.47
2022-11-05T10:47:06.078Z,10.30
2022-11-05T11:17:09.879Z,12.93
2022-11-05T11:47:12.801Z,7.97
2022-11-05T12:17:15.767Z,7.95
2022-11-05T12:47:19.245Z,6.40
2022-11-05T13:17:22.655Z,11.50
2022-11-05T13:47:26.226Z,7.00
2022-11-05T14:17:29.780Z,5.50
2022-11-05T14:47:33.052Z,11.77
2022-11-05T15:17:38.199Z,7.45
2022-11-05T15:47:41.462Z,5.37
2022-11-05T16:17:45.034Z,9.00
2022-11-05T16:47:47.826Z,7.70
2022-11-05T17:17:50.958Z,11.57
2022-11-05T17:47:53.804Z,7.47
2022-11-05T18:17:57.249Z,8.73
2022-11-05T18:48:00.072Z,7.73
2022-11-05T19:18:04.956Z,11.27
2022-11-05T19:48:08.678Z,19.33
2022-11-05T20:18:13.760Z,52.03
2022-11-05T20:48:17.259Z,46.33
2022-11-05T21:18:21.665Z,31.60
2022-11-05T21:48:24.740Z,46.23
2022-11-05T22:18:28.912Z,63.65
2022-11-05T22:48:32.255Z,58.77
2022-11-05T23:18:35.136Z,46.10
2022-11-05T23:48:38.842Z,36.03
